sensor_id;sensor_type;location;lat;lon;timestamp;temperature;humidity
10314;DHT22;5202;49.138;10.090;2023-07-30T00:00:48;18.00;99.90
10314;DHT22;5202;49.138;10.090;2023-07-30T00:03:17;18.00;99.90
10314;DHT22;5202;49.138;10.090;2023-07-30T00:05:53;18.00;99.90
10314;DHT22;5202;49.138;10.090;2023-07-30T00:08:22;17.90;99.90
10314;DHT22;5202;49.138;10.090;2023-07-30T00:10:51;17.90;99.90
10314;DHT22;5202;49.138;10.090;2023-07-30T00:13:19;17.90;99.90
10314;DHT22;5202;49.138;10.090;2023-07-30T00:15:47;17.90;99.90
10314;DHT22;5202;49.138;10.090;2023-07-30T00:18:17;17.90;99.90
10314;DHT22;5202;49.138;10.090;2023-07-30T00:20:45;17.90;99.90
10314;DHT22;5202;49.138;10.090;2023-07-30T00:23:15;17.90;99.90
10314;DHT22;5202;49.138;10.090;2023-07-30T00:25:43;17.80;99.90
10314;DHT22;5202;49.138;10.090;2023-07-30T00:28:12;17.80;99.90
10314;DHT22;5202;49.138;10.090;2023-07-30T00:30:40;17.70;99.90
10314;DHT22;5202;49.138;10.090;2023-07-30T00:33:09;17.70;99.90
10314;DHT22;5202;49.138;10.090;2023-07-30T00:35:37;17.70;99.90
10314;DHT22;5202;49.138;10.090;2023-07-30T00:38:05;17.60;99.90
10314;DHT22;5202;49.138;10.090;2023-07-30T00:40:39;17.60;99.90
10314;DHT22;5202;49.138;10.090;2023-07-30T00:43:10;17.60;99.90
10314;DHT22;5202;49.138;10.090;2023-07-30T00:45:41;17.70;99.90
10314;DHT22;5202;49.138;10.090;2023-07-30T00:48:11;17.60;99.90
10314;DHT22;5202;49.138;10.090;2023-07-30T00:50:41;17.60;99.90
10314;DHT22;5202;49.138;10.090;2023-07-30T00:53:14;17.60;99.90
10314;DHT22;5202;49.138;10.090;2023-07-30T00:55:44;17.60;99.90
10314;DHT22;5202;49.138;10.090;2023-07-30T00:58:12;17.60;99.90
10314;DHT22;5202;49.138;10.090;2023-07-30T01:00:41;17.60;99.90
10314;DHT22;5202;49.138;10.090;2023-07-30T01:03:10;17.60;99.90
10314;DHT22;5202;49.138;10.090;2023-07-30T01:05:38;17.60;99.90
10314;DHT22;5202;49.138;10.090;2023-07-30T01:08:07;17.70;99.90
10314;DHT22;5202;49.138;10.090;2023-07-30T01:10:36;17.70;99.90
10314;DHT22;5202;49.138;10.090;2023-07-30T01:13:08;17.60;99.90
10314;DHT22;5202;49.138;10.090;2023-07-30T01:15:37;17.60;99.90
10314;DHT22;5202;49.138;10.090;2023-07-30T01:18:06;17.60;99.90
10314;DHT22;5202;49.138;10.090;2023-07-30T01:20:34;17.60;99.90
10314;DHT22;5202;49.138;10.090;2023-07-30T01:23:04;17.50;99.90
10314;DHT22;5202;49.138;10.090;2023-07-30T01:25:36;17.40;99.90
10314;DHT22;5202;49.138;10.090;2023-07-30T01:28:06;17.40;99.90
10314;DHT22;5202;49.138;10.090;2023-07-30T01:30:39;17.30;99.90
10314;DHT22;5202;49.138;10.090;2023-07-30T01:33:10;17.30;99.90
10314;DHT22;5202;49.138;10.090;2023-07-30T01:35:40;17.30;99.90
10314;DHT22;5202;49.138;10.090;2023-07-30T01:38:12;17.20;99.90
10314;DHT22;5202;49.138;10.090;2023-07-30T01:40:41;17.20;99.90
10314;DHT22;5202;49.138;10.090;2023-07-30T01:43:10;17.20;99.90
10314;DHT22;5202;49.138;10.090;2023-07-30T01:45:38;17.20;99.90
10314;DHT22;5202;49.138;10.090;2023-07-30T01:48:08;17.20;99.90
10314;DHT22;5202;49.138;10.090;2023-07-30T01:50:36;17.20;99.90
10314;DHT22;5202;49.138;10.090;2023-07-30T01:53:05;17.20;99.90
10314;DHT22;5202;49.138;10.090;2023-07-30T01:55:34;17.20;99.90
10314;DHT22;5202;49.138;10.090;2023-07-30T01:58:03;17.20;99.90
10314;DHT22;5202;49.138;10.090;2023-07-30T02:00:31;17.20;99.90
10314;DHT22;5202;49.138;10.090;2023-07-30T02:03:05;17.20;99.90
10314;DHT22;5202;49.138;10.090;2023-07-30T02:05:41;17.10;99.90
10314;DHT22;5202;49.138;10.090;2023-07-30T02:08:09;17.10;99.90
10314;DHT22;5202;49.138;10.090;2023-07-30T02:10:41;17.20;99.90
10314;DHT22;5202;49.138;10.090;2023-07-30T02:13:09;17.00;99.90
10314;DHT22;5202;49.138;10.090;2023-07-30T02:15:42;17.00;99.90
10314;DHT22;5202;49.138;10.090;2023-07-30T02:18:10;17.00;99.90
10314;DHT22;5202;49.138;10.090;2023-07-30T02:20:39;17.10;99.90
10314;DHT22;5202;49.138;10.090;2023-07-30T02:23:08;17.10;99.90
10314;DHT22;5202;49.138;10.090;2023-07-30T02:25:37;17.10;99.90
10314;DHT22;5202;49.138;10.090;2023-07-30T02:28:07;17.00;99.90
10314;DHT22;5202;49.138;10.090;2023-07-30T02:30:36;17.00;99.90
10314;DHT22;5202;49.138;10.090;2023-07-30T02:33:04;17.00;99.90
10314;DHT22;5202;49.138;10.090;2023-07-30T02:35:33;17.00;99.90
10314;DHT22;5202;49.138;10.090;2023-07-30T02:38:01;17.00;99.90
10314;DHT22;5202;49.138;10.090;2023-07-30T02:40:31;17.00;99.90
10314;DHT22;5202;49.138;10.090;2023-07-30T02:42:59;17.00;99.90
10314;DHT22;5202;49.138;10.090;2023-07-30T02:45:29;17.00;99.90
10314;DHT22;5202;49.138;10.090;2023-07-30T02:47:58;17.00;99.90
10314;DHT22;5202;49.138;10.090;2023-07-30T02:50:26;17.00;99.90
10314;DHT22;5202;49.138;10.090;2023-07-30T02:52:54;16.90;99.90
10314;DHT22;5202;49.138;10.090;2023-07-30T02:55:23;16.90;99.90
10314;DHT22;5202;49.138;10.090;2023-07-30T02:57:51;16.90;99.90
10314;DHT22;5202;49.138;10.090;2023-07-30T03:00:20;16.90;99.90
10314;DHT22;5202;49.138;10.090;2023-07-30T03:02:50;16.80;99.90
10314;DHT22;5202;49.138;10.090;2023-07-30T03:05:19;16.80;99.90
10314;DHT22;5202;49.138;10.090;2023-07-30T03:07:47;16.70;99.90
10314;DHT22;5202;49.138;10.090;2023-07-30T03:10:15;16.80;99.90
10314;DHT22;5202;49.138;10.090;2023-07-30T03:12:44;16.70;99.90
10314;DHT22;5202;49.138;10.090;2023-07-30T03:15:12;16.70;99.90
10314;DHT22;5202;49.138;10.090;2023-07-30T03:17:40;16.70;99.90
10314;DHT22;5202;49.138;10.090;2023-07-30T03:20:11;16.70;99.90
10314;DHT22;5202;49.138;10.090;2023-07-30T03:22:39;16.80;99.90
10314;DHT22;5202;49.138;10.090;2023-07-30T03:25:08;16.80;99.90
10314;DHT22;5202;49.138;10.090;2023-07-30T03:27:36;16.70;99.90
10314;DHT22;5202;49.138;10.090;2023-07-30T03:30:05;16.70;99.90
10314;DHT22;5202;49.138;10.090;2023-07-30T03:32:34;16.70;99.90
10314;DHT22;5202;49.138;10.090;2023-07-30T03:35:03;16.60;99.90
10314;DHT22;5202;49.138;10.090;2023-07-30T03:37:33;16.60;99.90
10314;DHT22;5202;49.138;10.090;2023-07-30T03:40:03;16.50;99.90
10314;DHT22;5202;49.138;10.090;2023-07-30T03:42:32;16.50;99.90
10314;DHT22;5202;49.138;10.090;2023-07-30T03:45:00;16.40;99.90
10314;DHT22;5202;49.138;10.090;2023-07-30T03:47:29;16.40;99.90
10314;DHT22;5202;49.138;10.090;2023-07-30T03:49:57;16.40;99.90
10314;DHT22;5202;49.138;10.090;2023-07-30T03:52:25;16.50;99.90
10314;DHT22;5202;49.138;10.090;2023-07-30T03:54:55;16.40;99.90
10314;DHT22;5202;49.138;10.090;2023-07-30T03:57:23;16.40;99.90
10314;DHT22;5202;49.138;10.090;2023-07-30T03:59:51;16.40;99.90
10314;DHT22;5202;49.138;10.090;2023-07-30T04:02:20;16.40;99.90
10314;DHT22;5202;49.138;10.090;2023-07-30T04:04:48;16.30;99.90
10314;DHT22;5202;49.138;10.090;2023-07-30T04:07:25;16.30;99.90
10314;DHT22;5202;49.138;10.090;2023-07-30T04:09:55;16.40;99.90
10314;DHT22;5202;49.138;10.090;2023-07-30T04:12:23;16.40;99.90
10314;DHT22;5202;49.138;10.090;2023-07-30T04:14:52;16.40;99.90
10314;DHT22;5202;49.138;10.090;2023-07-30T04:17:20;16.40;99.90
10314;DHT22;5202;49.138;10.090;2023-07-30T04:19:49;16.50;99.90
10314;DHT22;5202;49.138;10.090;2023-07-30T04:22:17;16.50;99.90
10314;DHT22;5202;49.138;10.090;2023-07-30T04:24:46;16.50;99.90
10314;DHT22;5202;49.138;10.090;2023-07-30T04:27:16;16.50;99.90
10314;DHT22;5202;49.138;10.090;2023-07-30T04:29:44;16.50;99.90
10314;DHT22;5202;49.138;10.090;2023-07-30T04:32:12;16.50;99.90
10314;DHT22;5202;49.138;10.090;2023-07-30T04:34:41;16.50;99.90
10314;DHT22;5202;49.138;10.090;2023-07-30T04:37:08;16.50;99.90
10314;DHT22;5202;49.138;10.090;2023-07-30T04:39:37;16.50;99.90
10314;DHT22;5202;49.138;10.090;2023-07-30T04:42:06;16.50;99.90
10314;DHT22;5202;49.138;10.090;2023-07-30T04:44:35;16.60;99.90
10314;DHT22;5202;49.138;10.090;2023-07-30T04:47:10;16.60;99.90
10314;DHT22;5202;49.138;10.090;2023-07-30T04:49:38;16.60;99.90
10314;DHT22;5202;49.138;10.090;2023-07-30T04:52:07;16.60;99.90
10314;DHT22;5202;49.138;10.090;2023-07-30T04:55:01;16.70;99.90
10314;DHT22;5202;49.138;10.090;2023-07-30T04:57:29;16.70;99.90
10314;DHT22;5202;49.138;10.090;2023-07-30T04:59:59;16.70;99.90
10314;DHT22;5202;49.138;10.090;2023-07-30T05:02:27;16.70;99.90
10314;DHT22;5202;49.138;10.090;2023-07-30T05:04:56;16.80;99.90
10314;DHT22;5202;49.138;10.090;2023-07-30T05:07:24;16.70;99.90
10314;DHT22;5202;49.138;10.090;2023-07-30T05:09:52;16.80;99.90
10314;DHT22;5202;49.138;10.090;2023-07-30T05:12:21;16.80;99.90
10314;DHT22;5202;49.138;10.090;2023-07-30T05:14:49;16.90;99.90
10314;DHT22;5202;49.138;10.090;2023-07-30T05:17:19;16.90;99.90
10314;DHT22;5202;49.138;10.090;2023-07-30T05:19:47;17.00;99.90
10314;DHT22;5202;49.138;10.090;2023-07-30T05:22:15;17.10;99.90
10314;DHT22;5202;49.138;10.090;2023-07-30T05:24:44;17.10;99.90
10314;DHT22;5202;49.138;10.090;2023-07-30T05:27:12;17.20;99.90
10314;DHT22;5202;49.138;10.090;2023-07-30T05:29:41;17.10;99.90
10314;DHT22;5202;49.138;10.090;2023-07-30T05:32:09;17.10;99.90
10314;DHT22;5202;49.138;10.090;2023-07-30T05:34:40;17.20;99.90
10314;DHT22;5202;49.138;10.090;2023-07-30T05:37:09;17.20;99.90
10314;DHT22;5202;49.138;10.090;2023-07-30T05:39:37;17.30;99.90
10314;DHT22;5202;49.138;10.090;2023-07-30T05:42:05;17.30;99.90
10314;DHT22;5202;49.138;10.090;2023-07-30T05:44:34;17.30;99.90
10314;DHT22;5202;49.138;10.090;2023-07-30T05:47:02;17.30;99.90
10314;DHT22;5202;49.138;10.090;2023-07-30T05:49:31;17.30;99.90
10314;DHT22;5202;49.138;10.090;2023-07-30T05:52:00;17.30;99.90
10314;DHT22;5202;49.138;10.090;2023-07-30T05:54:29;17.30;99.90
10314;DHT22;5202;49.138;10.090;2023-07-30T05:56:57;17.30;99.90
10314;DHT22;5202;49.138;10.090;2023-07-30T05:59:25;17.30;99.90
10314;DHT22;5202;49.138;10.090;2023-07-30T06:01:56;17.30;99.90
10314;DHT22;5202;49.138;10.090;2023-07-30T06:04:27;17.30;99.90
10314;DHT22;5202;49.138;10.090;2023-07-30T06:06:58;17.30;99.90
10314;DHT22;5202;49.138;10.090;2023-07-30T06:09:30;17.40;99.90
10314;DHT22;5202;49.138;10.090;2023-07-30T06:11:58;17.40;99.90
10314;DHT22;5202;49.138;10.090;2023-07-30T06:14:27;17.40;99.90
10314;DHT22;5202;49.138;10.090;2023-07-30T06:16:55;17.40;99.90
10314;DHT22;5202;49.138;10.090;2023-07-30T06:19:23;17.50;99.90
10314;DHT22;5202;49.138;10.090;2023-07-30T06:21:53;17.50;99.90
10314;DHT22;5202;49.138;10.090;2023-07-30T06:24:22;17.60;99.90
10314;DHT22;5202;49.138;10.090;2023-07-30T06:26:51;17.50;99.90
10314;DHT22;5202;49.138;10.090;2023-07-30T06:29:19;17.50;99.90
10314;DHT22;5202;49.138;10.090;2023-07-30T06:31:48;17.50;99.90
10314;DHT22;5202;49.138;10.090;2023-07-30T06:34:16;17.50;99.90
10314;DHT22;5202;49.138;10.090;2023-07-30T06:36:44;17.40;99.90
10314;DHT22;5202;49.138;10.090;2023-07-30T06:39:13;17.50;99.90
10314;DHT22;5202;49.138;10.090;2023-07-30T06:41:42;17.40;99.90
10314;DHT22;5202;49.138;10.090;2023-07-30T06:44:11;17.40;99.90
10314;DHT22;5202;49.138;10.090;2023-07-30T06:46:40;17.50;99.90
10314;DHT22;5202;49.138;10.090;2023-07-30T06:49:09;17.50;99.90
10314;DHT22;5202;49.138;10.090;2023-07-30T06:51:37;17.40;99.90
10314;DHT22;5202;49.138;10.090;2023-07-30T06:54:06;17.50;99.90
10314;DHT22;5202;49.138;10.090;2023-07-30T06:56:34;17.50;99.90
10314;DHT22;5202;49.138;10.090;2023-07-30T06:59:04;17.50;99.90
10314;DHT22;5202;49.138;10.090;2023-07-30T07:01:32;17.50;99.90
10314;DHT22;5202;49.138;10.090;2023-07-30T07:04:01;17.40;99.90
10314;DHT22;5202;49.138;10.090;2023-07-30T07:06:29;17.40;99.90
10314;DHT22;5202;49.138;10.090;2023-07-30T07:08:57;17.40;99.90
10314;DHT22;5202;49.138;10.090;2023-07-30T07:11:26;17.50;99.90
10314;DHT22;5202;49.138;10.090;2023-07-30T07:13:54;17.60;99.90
10314;DHT22;5202;49.138;10.090;2023-07-30T07:16:24;17.60;99.90
10314;DHT22;5202;49.138;10.090;2023-07-30T07:18:52;17.80;99.90
10314;DHT22;5202;49.138;10.090;2023-07-30T07:21:20;18.10;99.90
10314;DHT22;5202;49.138;10.090;2023-07-30T07:23:49;18.20;99.90
10314;DHT22;5202;49.138;10.090;2023-07-30T07:26:17;18.20;99.90
10314;DHT22;5202;49.138;10.090;2023-07-30T07:28:45;18.40;99.90
10314;DHT22;5202;49.138;10.090;2023-07-30T07:31:13;18.40;99.90
10314;DHT22;5202;49.138;10.090;2023-07-30T07:33:44;18.40;99.90
10314;DHT22;5202;49.138;10.090;2023-07-30T07:36:13;18.40;99.90
10314;DHT22;5202;49.138;10.090;2023-07-30T07:38:42;18.40;99.90
10314;DHT22;5202;49.138;10.090;2023-07-30T07:41:14;18.40;99.90
10314;DHT22;5202;49.138;10.090;2023-07-30T07:43:43;18.30;99.90
10314;DHT22;5202;49.138;10.090;2023-07-30T07:46:12;18.20;99.90
10314;DHT22;5202;49.138;10.090;2023-07-30T07:48:43;18.30;99.90
10314;DHT22;5202;49.138;10.090;2023-07-30T07:51:12;18.30;99.90
10314;DHT22;5202;49.138;10.090;2023-07-30T07:53:41;18.20;99.90
10314;DHT22;5202;49.138;10.090;2023-07-30T07:56:09;18.20;99.90
10314;DHT22;5202;49.138;10.090;2023-07-30T07:58:37;18.30;99.90
10314;DHT22;5202;49.138;10.090;2023-07-30T08:01:05;18.30;99.90
10314;DHT22;5202;49.138;10.090;2023-07-30T08:03:34;18.40;99.90
10314;DHT22;5202;49.138;10.090;2023-07-30T08:06:05;18.50;99.90
10314;DHT22;5202;49.138;10.090;2023-07-30T08:08:38;18.70;99.90
10314;DHT22;5202;49.138;10.090;2023-07-30T08:11:07;18.80;99.90
10314;DHT22;5202;49.138;10.090;2023-07-30T08:13:35;18.90;99.90
10314;DHT22;5202;49.138;10.090;2023-07-30T08:16:04;19.00;99.90
10314;DHT22;5202;49.138;10.090;2023-07-30T08:18:32;19.00;99.90
10314;DHT22;5202;49.138;10.090;2023-07-30T08:21:01;18.90;99.90
10314;DHT22;5202;49.138;10.090;2023-07-30T08:23:30;18.90;99.90
10314;DHT22;5202;49.138;10.090;2023-07-30T08:25:58;18.80;99.90
10314;DHT22;5202;49.138;10.090;2023-07-30T08:28:27;18.80;99.90
10314;DHT22;5202;49.138;10.090;2023-07-30T08:31:00;18.90;99.90
10314;DHT22;5202;49.138;10.090;2023-07-30T08:33:29;18.90;99.90
10314;DHT22;5202;49.138;10.090;2023-07-30T08:35:58;18.80;99.90
10314;DHT22;5202;49.138;10.090;2023-07-30T08:38:29;18.80;99.90
10314;DHT22;5202;49.138;10.090;2023-07-30T08:40:58;18.70;99.90
10314;DHT22;5202;49.138;10.090;2023-07-30T08:43:27;18.70;99.90
10314;DHT22;5202;49.138;10.090;2023-07-30T08:45:55;18.60;99.90
10314;DHT22;5202;49.138;10.090;2023-07-30T08:48:25;18.60;99.90
10314;DHT22;5202;49.138;10.090;2023-07-30T08:50:56;18.70;99.90
10314;DHT22;5202;49.138;10.090;2023-07-30T08:53:25;18.60;99.90
10314;DHT22;5202;49.138;10.090;2023-07-30T08:55:56;18.60;99.90
10314;DHT22;5202;49.138;10.090;2023-07-30T08:58:25;18.60;99.90
10314;DHT22;5202;49.138;10.090;2023-07-30T09:00:55;18.50;99.90
10314;DHT22;5202;49.138;10.090;2023-07-30T09:03:27;18.40;99.90
10314;DHT22;5202;49.138;10.090;2023-07-30T09:05:57;18.30;99.90
10314;DHT22;5202;49.138;10.090;2023-07-30T09:08:25;18.10;99.90
10314;DHT22;5202;49.138;10.090;2023-07-30T09:10:55;17.90;99.90
10314;DHT22;5202;49.138;10.090;2023-07-30T09:13:23;17.80;99.90
10314;DHT22;5202;49.138;10.090;2023-07-30T09:15:52;17.80;99.90
10314;DHT22;5202;49.138;10.090;2023-07-30T09:18:20;17.70;99.90
10314;DHT22;5202;49.138;10.090;2023-07-30T09:20:48;17.60;99.90
10314;DHT22;5202;49.138;10.090;2023-07-30T09:23:17;17.60;99.90
10314;DHT22;5202;49.138;10.090;2023-07-30T09:25:47;17.60;99.90
10314;DHT22;5202;49.138;10.090;2023-07-30T09:28:18;17.60;99.90
10314;DHT22;5202;49.138;10.090;2023-07-30T09:30:49;17.70;99.90
10314;DHT22;5202;49.138;10.090;2023-07-30T09:33:18;17.60;99.90
10314;DHT22;5202;49.138;10.090;2023-07-30T09:35:49;17.60;99.90
10314;DHT22;5202;49.138;10.090;2023-07-30T09:38:19;17.70;99.90
10314;DHT22;5202;49.138;10.090;2023-07-30T09:40:48;17.80;99.90
10314;DHT22;5202;49.138;10.090;2023-07-30T09:43:18;17.70;99.90
10314;DHT22;5202;49.138;10.090;2023-07-30T09:45:47;17.80;99.90
10314;DHT22;5202;49.138;10.090;2023-07-30T09:48:15;17.90;99.90
10314;DHT22;5202;49.138;10.090;2023-07-30T09:50:44;17.90;99.90
10314;DHT22;5202;49.138;10.090;2023-07-30T09:53:13;18.10;99.90
10314;DHT22;5202;49.138;10.090;2023-07-30T09:55:43;18.20;99.90
10314;DHT22;5202;49.138;10.090;2023-07-30T09:58:11;18.30;99.90
10314;DHT22;5202;49.138;10.090;2023-07-30T10:00:43;18.40;99.90
10314;DHT22;5202;49.138;10.090;2023-07-30T10:03:15;18.40;99.90
10314;DHT22;5202;49.138;10.090;2023-07-30T10:05:47;18.50;99.90
10314;DHT22;5202;49.138;10.090;2023-07-30T10:08:25;18.50;99.90
10314;DHT22;5202;49.138;10.090;2023-07-30T10:10:55;18.60;99.90
10314;DHT22;5202;49.138;10.090;2023-07-30T10:13:25;18.80;99.90
10314;DHT22;5202;49.138;10.090;2023-07-30T10:15:55;19.00;99.90
10314;DHT22;5202;49.138;10.090;2023-07-30T10:18:33;19.10;99.90
10314;DHT22;5202;49.138;10.090;2023-07-30T10:21:02;19.20;99.90
10314;DHT22;5202;49.138;10.090;2023-07-30T10:23:32;19.30;99.90
10314;DHT22;5202;49.138;10.090;2023-07-30T10:26:09;19.30;99.90
10314;DHT22;5202;49.138;10.090;2023-07-30T10:28:38;19.30;99.90
10314;DHT22;5202;49.138;10.090;2023-07-30T10:31:11;19.30;99.90
10314;DHT22;5202;49.138;10.090;2023-07-30T10:33:44;19.20;99.90
10314;DHT22;5202;49.138;10.090;2023-07-30T10:36:14;19.20;99.90
10314;DHT22;5202;49.138;10.090;2023-07-30T10:38:45;19.20;99.90
10314;DHT22;5202;49.138;10.090;2023-07-30T10:41:15;19.20;99.90
10314;DHT22;5202;49.138;10.090;2023-07-30T10:43:48;19.10;99.90
10314;DHT22;5202;49.138;10.090;2023-07-30T10:46:19;19.10;99.90
10314;DHT22;5202;49.138;10.090;2023-07-30T10:48:48;19.40;99.90
10314;DHT22;5202;49.138;10.090;2023-07-30T10:51:18;19.70;99.90
10314;DHT22;5202;49.138;10.090;2023-07-30T10:53:48;19.80;99.90
10314;DHT22;5202;49.138;10.090;2023-07-30T10:56:21;19.80;99.90
10314;DHT22;5202;49.138;10.090;2023-07-30T10:58:51;19.70;99.90
10314;DHT22;5202;49.138;10.090;2023-07-30T11:01:25;19.60;99.90
10314;DHT22;5202;49.138;10.090;2023-07-30T11:03:54;19.50;99.90
10314;DHT22;5202;49.138;10.090;2023-07-30T11:06:24;19.50;99.90
10314;DHT22;5202;49.138;10.090;2023-07-30T11:08:54;19.50;99.90
10314;DHT22;5202;49.138;10.090;2023-07-30T11:11:22;19.40;99.90
10314;DHT22;5202;49.138;10.090;2023-07-30T11:13:52;19.40;99.90
10314;DHT22;5202;49.138;10.090;2023-07-30T11:16:20;19.40;99.90
10314;DHT22;5202;49.138;10.090;2023-07-30T11:18:50;19.40;99.90
10314;DHT22;5202;49.138;10.090;2023-07-30T11:21:19;19.40;99.90
10314;DHT22;5202;49.138;10.090;2023-07-30T11:23:50;19.40;99.90
10314;DHT22;5202;49.138;10.090;2023-07-30T11:26:20;19.50;99.90
10314;DHT22;5202;49.138;10.090;2023-07-30T11:28:48;19.70;99.90
10314;DHT22;5202;49.138;10.090;2023-07-30T11:31:17;19.70;99.90
10314;DHT22;5202;49.138;10.090;2023-07-30T11:33:50;19.80;99.90
10314;DHT22;5202;49.138;10.090;2023-07-30T11:36:21;19.90;99.90
10314;DHT22;5202;49.138;10.090;2023-07-30T11:38:51;20.10;99.90
10314;DHT22;5202;49.138;10.090;2023-07-30T11:41:21;20.40;99.90
10314;DHT22;5202;49.138;10.090;2023-07-30T11:43:51;20.40;98.50
10314;DHT22;5202;49.138;10.090;2023-07-30T11:46:20;20.50;97.30
10314;DHT22;5202;49.138;10.090;2023-07-30T11:48:52;20.60;97.50
10314;DHT22;5202;49.138;10.090;2023-07-30T11:51:23;20.90;98.30
10314;DHT22;5202;49.138;10.090;2023-07-30T11:53:53;21.10;96.70
10314;DHT22;5202;49.138;10.090;2023-07-30T11:56:24;21.10;96.00
10314;DHT22;5202;49.138;10.090;2023-07-30T11:58:55;21.20;96.10
10314;DHT22;5202;49.138;10.090;2023-07-30T12:01:26;21.40;95.70
10314;DHT22;5202;49.138;10.090;2023-07-30T12:04:04;21.40;95.20
10314;DHT22;5202;49.138;10.090;2023-07-30T12:06:42;21.20;95.60
10314;DHT22;5202;49.138;10.090;2023-07-30T12:09:12;21.40;95.90
10314;DHT22;5202;49.138;10.090;2023-07-30T12:11:46;21.30;96.40
10314;DHT22;5202;49.138;10.090;2023-07-30T12:14:15;21.40;96.20
10314;DHT22;5202;49.138;10.090;2023-07-30T12:16:44;21.50;95.40
10314;DHT22;5202;49.138;10.090;2023-07-30T12:19:14;21.30;95.00
10314;DHT22;5202;49.138;10.090;2023-07-30T12:21:42;21.00;95.40
10314;DHT22;5202;49.138;10.090;2023-07-30T12:24:11;20.80;95.80
10314;DHT22;5202;49.138;10.090;2023-07-30T12:26:39;20.70;96.50
10314;DHT22;5202;49.138;10.090;2023-07-30T12:29:08;20.50;96.90
10314;DHT22;5202;49.138;10.090;2023-07-30T12:31:37;20.30;96.90
10314;DHT22;5202;49.138;10.090;2023-07-30T12:34:05;20.20;97.00
10314;DHT22;5202;49.138;10.090;2023-07-30T12:36:35;20.50;97.70
10314;DHT22;5202;49.138;10.090;2023-07-30T12:39:03;20.80;95.50
10314;DHT22;5202;49.138;10.090;2023-07-30T12:41:32;21.00;96.00
10314;DHT22;5202;49.138;10.090;2023-07-30T12:44:01;21.10;95.10
10314;DHT22;5202;49.138;10.090;2023-07-30T12:46:31;21.10;95.00
10314;DHT22;5202;49.138;10.090;2023-07-30T12:49:00;21.10;93.90
10314;DHT22;5202;49.138;10.090;2023-07-30T12:51:31;21.00;93.80
10314;DHT22;5202;49.138;10.090;2023-07-30T12:54:01;21.10;93.80
10314;DHT22;5202;49.138;10.090;2023-07-30T12:56:30;21.20;93.40
10314;DHT22;5202;49.138;10.090;2023-07-30T12:59:00;21.10;92.90
10314;DHT22;5202;49.138;10.090;2023-07-30T13:01:29;21.30;93.00
10314;DHT22;5202;49.138;10.090;2023-07-30T13:03:57;21.40;92.80
10314;DHT22;5202;49.138;10.090;2023-07-30T13:06:26;21.20;93.00
10314;DHT22;5202;49.138;10.090;2023-07-30T13:08:54;21.10;92.60
10314;DHT22;5202;49.138;10.090;2023-07-30T13:11:24;21.20;93.20
10314;DHT22;5202;49.138;10.090;2023-07-30T13:13:52;21.30;93.00
10314;DHT22;5202;49.138;10.090;2023-07-30T13:16:47;21.30;93.20
10314;DHT22;5202;49.138;10.090;2023-07-30T13:19:16;21.40;93.50
10314;DHT22;5202;49.138;10.090;2023-07-30T13:21:44;21.40;93.70
10314;DHT22;5202;49.138;10.090;2023-07-30T13:24:13;21.50;93.20
10314;DHT22;5202;49.138;10.090;2023-07-30T13:26:43;21.70;93.30
10314;DHT22;5202;49.138;10.090;2023-07-30T13:29:11;22.00;93.20
10314;DHT22;5202;49.138;10.090;2023-07-30T13:31:39;22.10;91.20
10314;DHT22;5202;49.138;10.090;2023-07-30T13:34:09;22.00;90.90
10314;DHT22;5202;49.138;10.090;2023-07-30T13:36:37;22.10;90.20
10314;DHT22;5202;49.138;10.090;2023-07-30T13:39:05;22.10;90.10
10314;DHT22;5202;49.138;10.090;2023-07-30T13:41:34;22.00;90.50
10314;DHT22;5202;49.138;10.090;2023-07-30T13:44:08;22.00;91.50
10314;DHT22;5202;49.138;10.090;2023-07-30T13:46:37;21.90;91.30
10314;DHT22;5202;49.138;10.090;2023-07-30T13:49:07;21.50;91.10
10314;DHT22;5202;49.138;10.090;2023-07-30T13:51:36;21.50;91.20
10314;DHT22;5202;49.138;10.090;2023-07-30T13:54:05;21.50;90.30
10314;DHT22;5202;49.138;10.090;2023-07-30T13:56:35;21.20;90.60
10314;DHT22;5202;49.138;10.090;2023-07-30T13:59:05;21.30;90.70
10314;DHT22;5202;49.138;10.090;2023-07-30T14:01:35;21.60;90.70
10314;DHT22;5202;49.138;10.090;2023-07-30T14:04:06;21.70;90.10
10314;DHT22;5202;49.138;10.090;2023-07-30T14:06:35;21.70;90.10
10314;DHT22;5202;49.138;10.090;2023-07-30T14:09:03;21.30;90.60
10314;DHT22;5202;49.138;10.090;2023-07-30T14:11:32;21.10;91.10
10314;DHT22;5202;49.138;10.090;2023-07-30T14:14:00;20.90;91.20
10314;DHT22;5202;49.138;10.090;2023-07-30T14:16:28;20.70;91.70
10314;DHT22;5202;49.138;10.090;2023-07-30T14:18:58;20.80;92.10
10314;DHT22;5202;49.138;10.090;2023-07-30T14:21:27;21.10;91.10
10314;DHT22;5202;49.138;10.090;2023-07-30T14:23:55;21.40;91.20
10314;DHT22;5202;49.138;10.090;2023-07-30T14:26:23;21.60;90.80
10314;DHT22;5202;49.138;10.090;2023-07-30T14:28:52;21.50;90.20
10314;DHT22;5202;49.138;10.090;2023-07-30T14:31:20;21.70;88.80
10314;DHT22;5202;49.138;10.090;2023-07-30T14:33:48;21.80;88.50
10314;DHT22;5202;49.138;10.090;2023-07-30T14:36:19;21.90;88.10
10314;DHT22;5202;49.138;10.090;2023-07-30T14:38:47;21.60;86.40
10314;DHT22;5202;49.138;10.090;2023-07-30T14:41:15;21.60;86.50
10314;DHT22;5202;49.138;10.090;2023-07-30T14:43:44;21.80;87.60
10314;DHT22;5202;49.138;10.090;2023-07-30T14:46:12;21.90;85.70
10314;DHT22;5202;49.138;10.090;2023-07-30T14:48:42;21.70;86.50
10314;DHT22;5202;49.138;10.090;2023-07-30T14:51:10;21.70;86.80
10314;DHT22;5202;49.138;10.090;2023-07-30T14:53:40;21.50;86.20
10314;DHT22;5202;49.138;10.090;2023-07-30T14:56:08;21.40;87.10
10314;DHT22;5202;49.138;10.090;2023-07-30T14:58:37;21.50;87.30
10314;DHT22;5202;49.138;10.090;2023-07-30T15:01:05;21.50;87.00
10314;DHT22;5202;49.138;10.090;2023-07-30T15:03:37;21.30;86.80
10314;DHT22;5202;49.138;10.090;2023-07-30T15:06:05;21.10;87.60
10314;DHT22;5202;49.138;10.090;2023-07-30T15:08:33;21.10;88.90
10314;DHT22;5202;49.138;10.090;2023-07-30T15:11:03;21.20;87.50
10314;DHT22;5202;49.138;10.090;2023-07-30T15:13:32;21.10;88.30
10314;DHT22;5202;49.138;10.090;2023-07-30T15:16:01;21.10;87.70
10314;DHT22;5202;49.138;10.090;2023-07-30T15:18:30;21.10;87.80
10314;DHT22;5202;49.138;10.090;2023-07-30T15:20:58;21.00;87.40
10314;DHT22;5202;49.138;10.090;2023-07-30T15:23:26;20.90;88.70
10314;DHT22;5202;49.138;10.090;2023-07-30T15:25:55;21.00;89.30
10314;DHT22;5202;49.138;10.090;2023-07-30T15:28:25;21.10;89.40
10314;DHT22;5202;49.138;10.090;2023-07-30T15:30:53;21.10;89.50
10314;DHT22;5202;49.138;10.090;2023-07-30T15:33:21;20.90;89.20
10314;DHT22;5202;49.138;10.090;2023-07-30T15:35:50;20.70;90.10
10314;DHT22;5202;49.138;10.090;2023-07-30T15:38:18;20.40;90.20
10314;DHT22;5202;49.138;10.090;2023-07-30T15:40:46;20.50;90.20
10314;DHT22;5202;49.138;10.090;2023-07-30T15:43:15;20.60;90.20